sensor_id;sensor_type;location;lat;lon;timestamp;pressure;altitude;pressure_sealevel;temperature;humidity
14790;BME280;7486;51.010;10.366;2024-01-11T00:01:09;99715.75;;;-10.82;71.11
14790;BME280;7486;51.010;10.366;2024-01-11T00:03:55;99697.16;;;-10.88;71.57
14790;BME280;7486;51.010;10.366;2024-01-11T00:06:44;99703.03;;;-10.85;71.49
14790;BME280;7486;51.010;10.366;2024-01-11T00:09:30;99704.09;;;-10.92;70.45
14790;BME280;7486;51.010;10.366;2024-01-11T00:12:16;99702.44;;;-10.94;71.49
14790;BME280;7486;51.010;10.366;2024-01-11T00:15:02;99704.53;;;-11.11;71.35
14790;BME280;7486;51.010;10.366;2024-01-11T00:17:48;99706.47;;;-11.21;71.31
14790;BME280;7486;51.010;10.366;2024-01-11T00:20:33;99712.53;;;-11.25;71.48
14790;BME280;7486;51.010;10.366;2024-01-11T00:23:19;99702.13;;;-11.18;71.89
14790;BME280;7486;51.010;10.366;2024-01-11T00:26:04;99698.59;;;-11.12;72.47
14790;BME280;7486;51.010;10.366;2024-01-11T00:28:50;99698.31;;;-11.00;73.05
14790;BME280;7486;51.010;10.366;2024-01-11T00:31:36;99708.44;;;-10.95;72.55
14790;BME280;7486;51.010;10.366;2024-01-11T00:34:21;99713.78;;;-11.06;71.94
14790;BME280;7486;51.010;10.366;2024-01-11T00:37:07;99726.94;;;-11.21;72.61
14790;BME280;7486;51.010;10.366;2024-01-11T00:39:52;99706.38;;;-11.17;73.63
14790;BME280;7486;51.010;10.366;2024-01-11T00:42:38;99691.59;;;-11.05;73.33
14790;BME280;7486;51.010;10.366;2024-01-11T00:45:23;99706.72;;;-10.95;73.22
14790;BME280;7486;51.010;10.366;2024-01-11T00:48:09;99704.84;;;-10.88;72.37
14790;BME280;7486;51.010;10.366;2024-01-11T00:50:54;99699.97;;;-10.99;72.42
14790;BME280;7486;51.010;10.366;2024-01-11T00:53:39;99688.28;;;-11.09;72.25
14790;BME280;7486;51.010;10.366;2024-01-11T00:56:25;99684.84;;;-11.08;72.75
14790;BME280;7486;51.010;10.366;2024-01-11T00:59:10;99690.97;;;-11.13;72.29
14790;BME280;7486;51.010;10.366;2024-01-11T01:01:56;99678.59;;;-11.33;73.18
14790;BME280;7486;51.010;10.366;2024-01-11T01:04:41;99699.13;;;-11.36;73.94
14790;BME280;7486;51.010;10.366;2024-01-11T01:07:27;99693.16;;;-11.37;73.76
14790;BME280;7486;51.010;10.366;2024-01-11T01:10:13;99686.16;;;-11.27;73.77
14790;BME280;7486;51.010;10.366;2024-01-11T01:12:58;99696.25;;;-11.21;73.84
14790;BME280;7486;51.010;10.366;2024-01-11T01:15:44;99679.06;;;-11.16;72.94
14790;BME280;7486;51.010;10.366;2024-01-11T01:18:30;99675.47;;;-11.07;72.86
14790;BME280;7486;51.010;10.366;2024-01-11T01:21:15;99670.19;;;-11.01;72.15
14790;BME280;7486;51.010;10.366;2024-01-11T01:24:00;99672.09;;;-11.09;73.41
14790;BME280;7486;51.010;10.366;2024-01-11T01:26:46;99675.38;;;-11.03;72.31
14790;BME280;7486;51.010;10.366;2024-01-11T01:29:32;99633.78;;;-11.48;72.47
14790;BME280;7486;51.010;10.366;2024-01-11T01:32:17;99680.06;;;-11.23;73.54
14790;BME280;7486;51.010;10.366;2024-01-11T01:35:03;99673.22;;;-11.21;73.61
14790;BME280;7486;51.010;10.366;2024-01-11T01:37:48;99672.94;;;-11.09;72.46
14790;BME280;7486;51.010;10.366;2024-01-11T01:40:33;99660.81;;;-11.01;72.06
14790;BME280;7486;51.010;10.366;2024-01-11T01:43:18;99667.63;;;-11.00;71.22
14790;BME280;7486;51.010;10.366;2024-01-11T01:46:05;99665.84;;;-10.98;71.09
14790;BME280;7486;51.010;10.366;2024-01-11T01:48:53;99659.78;;;-10.94;71.68
14790;BME280;7486;51.010;10.366;2024-01-11T01:51:39;99607.84;;;-11.33;71.31
14790;BME280;7486;51.010;10.366;2024-01-11T01:54:24;99659.03;;;-10.99;71.92
14790;BME280;7486;51.010;10.366;2024-01-11T01:57:10;99651.19;;;-10.91;72.04
14790;BME280;7486;51.010;10.366;2024-01-11T01:59:57;99659.59;;;-10.86;71.59
14790;BME280;7486;51.010;10.366;2024-01-11T02:02:44;99645.97;;;-10.87;71.46
14790;BME280;7486;51.010;10.366;2024-01-11T02:05:30;99633.94;;;-10.85;70.69
14790;BME280;7486;51.010;10.366;2024-01-11T02:08:16;99613.81;;;-10.98;70.45
14790;BME280;7486;51.010;10.366;2024-01-11T02:11:05;99608.03;;;-11.05;70.41
14790;BME280;7486;51.010;10.366;2024-01-11T02:13:51;99634.97;;;-10.90;70.50
14790;BME280;7486;51.010;10.366;2024-01-11T02:16:37;99627.28;;;-10.90;70.00
14790;BME280;7486;51.010;10.366;2024-01-11T02:19:23;99633.31;;;-10.93;69.50
14790;BME280;7486;51.010;10.366;2024-01-11T02:22:14;99638.63;;;-11.00;69.77
14790;BME280;7486;51.010;10.366;2024-01-11T02:25:01;99643.91;;;-11.08;69.31
14790;BME280;7486;51.010;10.366;2024-01-11T02:27:49;99637.25;;;-11.15;69.42
14790;BME280;7486;51.010;10.366;2024-01-11T02:30:35;99645.94;;;-11.21;69.19
14790;BME280;7486;51.010;10.366;2024-01-11T02:33:20;99649.28;;;-11.19;69.70
14790;BME280;7486;51.010;10.366;2024-01-11T02:36:06;99644.09;;;-11.16;69.70
14790;BME280;7486;51.010;10.366;2024-01-11T02:38:53;99547.44;;;-11.72;69.48
14790;BME280;7486;51.010;10.366;2024-01-11T02:41:38;99640.75;;;-11.19;69.60
14790;BME280;7486;51.010;10.366;2024-01-11T02:44:24;99620.47;;;-11.25;69.72
14790;BME280;7486;51.010;10.366;2024-01-11T02:47:09;99642.47;;;-11.18;69.15
14790;BME280;7486;51.010;10.366;2024-01-11T02:49:55;99650.97;;;-11.18;69.64
14790;BME280;7486;51.010;10.366;2024-01-11T02:52:40;99652.31;;;-11.40;68.47
14790;BME280;7486;51.010;10.366;2024-01-11T02:55:26;99642.94;;;-11.39;70.41
14790;BME280;7486;51.010;10.366;2024-01-11T02:58:11;99643.56;;;-11.30;69.83
14790;BME280;7486;51.010;10.366;2024-01-11T03:00:57;99646.09;;;-11.28;69.61
14790;BME280;7486;51.010;10.366;2024-01-11T03:03:43;99649.47;;;-11.26;69.79
14790;BME280;7486;51.010;10.366;2024-01-11T03:06:28;99652.91;;;-11.27;69.08
14790;BME280;7486;51.010;10.366;2024-01-11T03:09:14;99658.03;;;-11.27;69.75
14790;BME280;7486;51.010;10.366;2024-01-11T03:11:59;99646.97;;;-11.29;68.24
14790;BME280;7486;51.010;10.366;2024-01-11T03:14:45;99645.34;;;-11.33;68.94
14790;BME280;7486;51.010;10.366;2024-01-11T03:17:30;99570.63;;;-11.81;68.61
14790;BME280;7486;51.010;10.366;2024-01-11T03:20:16;99656.81;;;-11.49;68.03
14790;BME280;7486;51.010;10.366;2024-01-11T03:23:02;99655.84;;;-11.44;69.49
14790;BME280;7486;51.010;10.366;2024-01-11T03:25:47;99662.59;;;-11.41;68.57
14790;BME280;7486;51.010;10.366;2024-01-11T03:28:32;99661.72;;;-11.40;69.37
14790;BME280;7486;51.010;10.366;2024-01-11T03:31:18;99670.38;;;-11.46;69.39
14790;BME280;7486;51.010;10.366;2024-01-11T03:34:03;99667.78;;;-11.44;69.00
14790;BME280;7486;51.010;10.366;2024-01-11T03:36:48;99663.53;;;-11.45;68.97
14790;BME280;7486;51.010;10.366;2024-01-11T03:39:34;99664.41;;;-11.45;68.74
14790;BME280;7486;51.010;10.366;2024-01-11T03:42:20;99677.13;;;-11.43;68.69
14790;BME280;7486;51.010;10.366;2024-01-11T03:45:05;99680.75;;;-11.53;68.54
14790;BME280;7486;51.010;10.366;2024-01-11T03:47:51;99679.88;;;-11.51;68.66
14790;BME280;7486;51.010;10.366;2024-01-11T03:50:36;99672.16;;;-11.49;69.06
14790;BME280;7486;51.010;10.366;2024-01-11T03:53:22;99687.41;;;-11.45;69.06
14790;BME280;7486;51.010;10.366;2024-01-11T03:56:07;99696.75;;;-11.44;68.91
14790;BME280;7486;51.010;10.366;2024-01-11T03:58:53;99709.72;;;-11.51;69.48
14790;BME280;7486;51.010;10.366;2024-01-11T04:01:40;99694.38;;;-11.51;69.98
14790;BME280;7486;51.010;10.366;2024-01-11T04:04:26;99695.16;;;-11.48;69.90
14790;BME280;7486;51.010;10.366;2024-01-11T04:07:12;99693.38;;;-11.46;69.55
14790;BME280;7486;51.010;10.366;2024-01-11T04:09:57;99685.75;;;-11.47;69.39
14790;BME280;7486;51.010;10.366;2024-01-11T04:12:42;99684.00;;;-11.45;68.38
14790;BME280;7486;51.010;10.366;2024-01-11T04:15:28;99520.13;;;-12.47;68.43
14790;BME280;7486;51.010;10.366;2024-01-11T04:18:14;99673.97;;;-11.54;69.47
14790;BME280;7486;51.010;10.366;2024-01-11T04:20:59;99671.53;;;-11.59;69.55
14790;BME280;7486;51.010;10.366;2024-01-11T04:23:45;99674.84;;;-11.55;70.29
14790;BME280;7486;51.010;10.366;2024-01-11T04:26:30;99677.41;;;-11.55;69.19
14790;BME280;7486;51.010;10.366;2024-01-11T04:29:16;99681.75;;;-11.59;69.67
14790;BME280;7486;51.010;10.366;2024-01-11T04:32:01;99675.84;;;-11.62;69.42
14790;BME280;7486;51.010;10.366;2024-01-11T04:34:48;99675.00;;;-11.61;69.45
14790;BME280;7486;51.010;10.366;2024-01-11T04:37:34;99679.19;;;-11.59;69.52
14790;BME280;7486;51.010;10.366;2024-01-11T04:40:19;99681.75;;;-11.60;70.07
14790;BME280;7486;51.010;10.366;2024-01-11T04:43:04;99682.72;;;-12.06;68.65
14790;BME280;7486;51.010;10.366;2024-01-11T04:45:50;99679.22;;;-12.02;70.87
14790;BME280;7486;51.010;10.366;2024-01-11T04:48:36;99678.78;;;-11.81;70.76
14790;BME280;7486;51.010;10.366;2024-01-11T04:51:21;99597.72;;;-12.12;70.48
14790;BME280;7486;51.010;10.366;2024-01-11T04:54:07;99674.31;;;-11.71;70.39
14790;BME280;7486;51.010;10.366;2024-01-11T04:56:52;99676.13;;;-11.75;69.33
14790;BME280;7486;51.010;10.366;2024-01-11T04:59:38;99681.09;;;-11.69;70.40
14790;BME280;7486;51.010;10.366;2024-01-11T05:02:23;99682.81;;;-11.69;69.13
14790;BME280;7486;51.010;10.366;2024-01-11T05:05:09;99684.50;;;-11.68;68.88
14790;BME280;7486;51.010;10.366;2024-01-11T05:07:55;99675.16;;;-11.69;69.81
14790;BME280;7486;51.010;10.366;2024-01-11T05:10:40;99674.44;;;-11.77;69.47
14790;BME280;7486;51.010;10.366;2024-01-11T05:13:26;99692.97;;;-11.68;69.14
14790;BME280;7486;51.010;10.366;2024-01-11T05:16:25;99696.53;;;-11.73;69.53
14790;BME280;7486;51.010;10.366;2024-01-11T05:19:10;99708.72;;;-11.87;68.83
14790;BME280;7486;51.010;10.366;2024-01-11T05:21:56;99708.88;;;-11.95;70.75
14790;BME280;7486;51.010;10.366;2024-01-11T05:24:42;99709.50;;;-11.82;70.40
14790;BME280;7486;51.010;10.366;2024-01-11T05:27:27;99705.19;;;-11.80;69.66
14790;BME280;7486;51.010;10.366;2024-01-11T05:30:13;99727.09;;;-11.69;69.51
14790;BME280;7486;51.010;10.366;2024-01-11T05:32:59;99659.19;;;-12.67;68.46
14790;BME280;7486;51.010;10.366;2024-01-11T05:35:44;99747.84;;;-12.30;69.84
14790;BME280;7486;51.010;10.366;2024-01-11T05:38:30;99709.81;;;-12.45;70.93
14790;BME280;7486;51.010;10.366;2024-01-11T05:41:15;99751.69;;;-12.06;70.29
14790;BME280;7486;51.010;10.366;2024-01-11T05:44:01;99759.19;;;-11.98;70.36
14790;BME280;7486;51.010;10.366;2024-01-11T05:46:47;99738.53;;;-11.86;71.24
14790;BME280;7486;51.010;10.366;2024-01-11T05:49:32;99740.94;;;-11.79;70.74
14790;BME280;7486;51.010;10.366;2024-01-11T05:52:17;99736.63;;;-11.75;70.66
14790;BME280;7486;51.010;10.366;2024-01-11T05:55:03;99734.91;;;-11.75;69.85
14790;BME280;7486;51.010;10.366;2024-01-11T05:57:49;99735.78;;;-11.76;70.10
14790;BME280;7486;51.010;10.366;2024-01-11T06:00:34;99734.78;;;-11.70;70.14
14790;BME280;7486;51.010;10.366;2024-01-11T06:03:20;99739.84;;;-11.67;69.31
14790;BME280;7486;51.010;10.366;2024-01-11T06:06:05;99732.22;;;-11.69;69.75
14790;BME280;7486;51.010;10.366;2024-01-11T06:08:51;99727.94;;;-11.68;69.15
14790;BME280;7486;51.010;10.366;2024-01-11T06:11:37;99707.44;;;-11.65;69.61
14790;BME280;7486;51.010;10.366;2024-01-11T06:14:23;99692.22;;;-11.71;69.52
14790;BME280;7486;51.010;10.366;2024-01-11T06:17:08;99683.91;;;-11.81;69.24
14790;BME280;7486;51.010;10.366;2024-01-11T06:19:54;99676.28;;;-11.84;69.59
14790;BME280;7486;51.010;10.366;2024-01-11T06:22:40;99648.03;;;-12.18;70.36
14790;BME280;7486;51.010;10.366;2024-01-11T06:25:30;99679.91;;;-11.94;71.78
14790;BME280;7486;51.010;10.366;2024-01-11T06:28:15;99664.72;;;-12.00;70.88
14790;BME280;7486;51.010;10.366;2024-01-11T06:31:01;99599.72;;;-12.28;71.53
14790;BME280;7486;51.010;10.366;2024-01-11T06:33:46;99689.63;;;-11.70;69.98
14790;BME280;7486;51.010;10.366;2024-01-11T06:36:35;99687.09;;;-11.71;70.47
14790;BME280;7486;51.010;10.366;2024-01-11T06:39:21;99707.59;;;-11.73;70.12
14790;BME280;7486;51.010;10.366;2024-01-11T06:42:06;99738.88;;;-13.05;72.71
14790;BME280;7486;51.010;10.366;2024-01-11T06:44:52;99709.84;;;-13.53;75.33
14790;BME280;7486;51.010;10.366;2024-01-11T06:47:37;99735.78;;;-13.93;78.51
14790;BME280;7486;51.010;10.366;2024-01-11T06:50:23;99755.38;;;-13.99;79.66
14790;BME280;7486;51.010;10.366;2024-01-11T06:53:08;99740.09;;;-13.29;78.51
14790;BME280;7486;51.010;10.366;2024-01-11T06:55:53;99654.09;;;-13.21;76.97
14790;BME280;7486;51.010;10.366;2024-01-11T06:58:39;99711.47;;;-12.42;76.09
14790;BME280;7486;51.010;10.366;2024-01-11T07:01:25;99641.16;;;-12.60;74.57
14790;BME280;7486;51.010;10.366;2024-01-11T07:04:10;99727.72;;;-12.00;73.96
14790;BME280;7486;51.010;10.366;2024-01-11T07:06:57;99731.94;;;-11.98;73.43
14790;BME280;7486;51.010;10.366;2024-01-11T07:09:43;99749.59;;;-11.86;73.32
14790;BME280;7486;51.010;10.366;2024-01-11T07:12:28;99752.00;;;-11.78;72.19
14790;BME280;7486;51.010;10.366;2024-01-11T07:15:13;99753.59;;;-11.73;72.84
14790;BME280;7486;51.010;10.366;2024-01-11T07:17:58;99749.22;;;-11.68;71.78
14790;BME280;7486;51.010;10.366;2024-01-11T07:20:44;99751.78;;;-11.68;71.23
14790;BME280;7486;51.010;10.366;2024-01-11T07:23:30;99731.56;;;-11.78;71.52
14790;BME280;7486;51.010;10.366;2024-01-11T07:26:16;99740.69;;;-11.67;71.00
14790;BME280;7486;51.010;10.366;2024-01-11T07:29:01;99746.56;;;-11.61;70.97
14790;BME280;7486;51.010;10.366;2024-01-11T07:31:47;99735.09;;;-11.85;69.31
14790;BME280;7486;51.010;10.366;2024-01-11T07:34:33;99731.72;;;-11.86;71.90
14790;BME280;7486;51.010;10.366;2024-01-11T07:37:19;99730.66;;;-11.76;71.17
14790;BME280;7486;51.010;10.366;2024-01-11T07:40:08;99747.34;;;-11.59;70.89
14790;BME280;7486;51.010;10.366;2024-01-11T07:42:53;99744.75;;;-11.56;71.24
14790;BME280;7486;51.010;10.366;2024-01-11T07:45:39;99663.00;;;-11.99;71.06
14790;BME280;7486;51.010;10.366;2024-01-11T07:48:24;99761.56;;;-11.45;71.34
14790;BME280;7486;51.010;10.366;2024-01-11T07:51:10;99735.56;;;-11.27;71.96
14790;BME280;7486;51.010;10.366;2024-01-11T07:53:55;99742.25;;;-11.20;71.17
14790;BME280;7486;51.010;10.366;2024-01-11T07:56:40;99721.22;;;-11.32;70.90
14790;BME280;7486;51.010;10.366;2024-01-11T07:59:26;99723.44;;;-11.17;71.47
14790;BME280;7486;51.010;10.366;2024-01-11T08:02:11;99725.00;;;-11.10;72.72
14790;BME280;7486;51.010;10.366;2024-01-11T08:04:57;99702.00;;;-11.11;71.87
14790;BME280;7486;51.010;10.366;2024-01-11T08:07:42;99714.28;;;-10.90;71.82
14790;BME280;7486;51.010;10.366;2024-01-11T08:10:28;99720.00;;;-10.81;72.59
14790;BME280;7486;51.010;10.366;2024-01-11T08:13:13;99734.56;;;-11.59;72.97
14790;BME280;7486;51.010;10.366;2024-01-11T08:16:00;99739.19;;;-11.77;74.38
14790;BME280;7486;51.010;10.366;2024-01-11T08:18:46;99744.88;;;-11.62;75.15
14790;BME280;7486;51.010;10.366;2024-01-11T08:21:32;99761.06;;;-12.06;75.72
14790;BME280;7486;51.010;10.366;2024-01-11T08:24:17;99708.34;;;-12.10;76.43
14790;BME280;7486;51.010;10.366;2024-01-11T08:27:03;99746.19;;;-12.32;76.57
14790;BME280;7486;51.010;10.366;2024-01-11T08:29:48;99744.38;;;-11.81;76.70
14790;BME280;7486;51.010;10.366;2024-01-11T08:32:34;99738.44;;;-11.40;76.91
14790;BME280;7486;51.010;10.366;2024-01-11T08:35:19;99736.03;;;-11.08;75.40
14790;BME280;7486;51.010;10.366;2024-01-11T08:38:05;99730.06;;;-11.08;75.30
14790;BME280;7486;51.010;10.366;2024-01-11T08:40:51;99716.56;;;-10.80;74.47
14790;BME280;7486;51.010;10.366;2024-01-11T08:43:36;99715.91;;;-10.52;74.68
14790;BME280;7486;51.010;10.366;2024-01-11T08:46:28;99719.47;;;-10.26;74.74
14790;BME280;7486;51.010;10.366;2024-01-11T08:49:14;99723.84;;;-10.29;73.10
14790;BME280;7486;51.010;10.366;2024-01-11T08:51:59;99749.03;;;-11.19;74.53
14790;BME280;7486;51.010;10.366;2024-01-11T08:54:44;99724.97;;;-10.75;76.90
14790;BME280;7486;51.010;10.366;2024-01-11T08:57:30;99737.16;;;-10.49;75.67
14790;BME280;7486;51.010;10.366;2024-01-11T09:00:16;99715.06;;;-10.53;75.97
14790;BME280;7486;51.010;10.366;2024-01-11T09:03:02;99725.44;;;-10.25;76.76
14790;BME280;7486;51.010;10.366;2024-01-11T09:05:48;99695.28;;;-10.16;75.72
14790;BME280;7486;51.010;10.366;2024-01-11T09:08:34;99714.63;;;-10.04;75.02
14790;BME280;7486;51.010;10.366;2024-01-11T09:11:19;99713.00;;;-10.40;77.04
14790;BME280;7486;51.010;10.366;2024-01-11T09:14:06;99727.38;;;-10.01;77.13
14790;BME280;7486;51.010;10.366;2024-01-11T09:16:52;99717.31;;;-9.78;75.40
14790;BME280;7486;51.010;10.366;2024-01-11T09:19:38;99734.13;;;-9.38;75.59
14790;BME280;7486;51.010;10.366;2024-01-11T09:22:23;99730.84;;;-9.14;74.68
14790;BME280;7486;51.010;10.366;2024-01-11T09:25:09;99738.41;;;-9.10;74.23
14790;BME280;7486;51.010;10.366;2024-01-11T09:27:54;99633.25;;;-9.67;74.07
14790;BME280;7486;51.010;10.366;2024-01-11T09:30:39;99701.53;;;-9.07;75.10
14790;BME280;7486;51.010;10.366;2024-01-11T09:33:26;99741.81;;;-8.55;74.25
14790;BME280;7486;51.010;10.366;2024-01-11T09:36:13;99683.56;;;-9.07;74.08
14790;BME280;7486;51.010;10.366;2024-01-11T09:38:58;99738.09;;;-8.73;75.33
14790;BME280;7486;51.010;10.366;2024-01-11T09:41:55;99733.75;;;-8.44;75.97
14790;BME280;7486;51.010;10.366;2024-01-11T09:44:43;99736.22;;;-8.41;75.49
14790;BME280;7486;51.010;10.366;2024-01-11T09:47:29;99746.00;;;-8.26;74.78
14790;BME280;7486;51.010;10.366;2024-01-11T09:50:15;99742.16;;;-8.15;74.67
14790;BME280;7486;51.010;10.366;2024-01-11T09:53:02;99746.56;;;-8.18;73.33
14790;BME280;7486;51.010;10.366;2024-01-11T09:55:49;99735.91;;;-8.06;73.79
14790;BME280;7486;51.010;10.366;2024-01-11T09:58:35;99738.94;;;-7.95;74.05
14790;BME280;7486;51.010;10.366;2024-01-11T10:01:22;99740.31;;;-7.85;73.77
14790;BME280;7486;51.010;10.366;2024-01-11T10:04:08;99753.63;;;-8.23;75.45
14790;BME280;7486;51.010;10.366;2024-01-11T10:06:53;99737.25;;;-8.21;77.75
14790;BME280;7486;51.010;10.366;2024-01-11T10:09:40;99736.91;;;-7.87;77.02
14790;BME280;7486;51.010;10.366;2024-01-11T10:12:29;99737.47;;;-8.02;78.02
14790;BME280;7486;51.010;10.366;2024-01-11T10:15:14;99739.34;;;-7.82;78.28
14790;BME280;7486;51.010;10.366;2024-01-11T10:18:00;99736.66;;;-7.56;77.60
14790;BME280;7486;51.010;10.366;2024-01-11T10:20:48;99733.44;;;-7.38;77.00
14790;BME280;7486;51.010;10.366;2024-01-11T10:23:34;99725.53;;;-7.33;76.49
14790;BME280;7486;51.010;10.366;2024-01-11T10:26:19;99723.94;;;-7.14;76.74
14790;BME280;7486;51.010;10.366;2024-01-11T10:29:05;99719.28;;;-7.05;76.51
14790;BME280;7486;51.010;10.366;2024-01-11T10:31:51;99718.41;;;-6.82;76.31
14790;BME280;7486;51.010;10.366;2024-01-11T10:34:37;99724.31;;;-6.58;76.83
14790;BME280;7486;51.010;10.366;2024-01-11T10:37:23;99723.09;;;-6.49;76.93
14790;BME280;7486;51.010;10.366;2024-01-11T10:40:09;99709.34;;;-6.92;76.10
14790;BME280;7486;51.010;10.366;2024-01-11T10:42:58;99724.56;;;-6.86;77.35
14790;BME280;7486;51.010;10.366;2024-01-11T10:45:44;99720.34;;;-6.67;76.21
14790;BME280;7486;51.010;10.366;2024-01-11T10:48:36;99718.91;;;-6.74;75.76
14790;BME280;7486;51.010;10.366;2024-01-11T10:51:23;99721.41;;;-6.50;76.21
14790;BME280;7486;51.010;10.366;2024-01-11T10:54:11;99700.41;;;-6.41;74.02
14790;BME280;7486;51.010;10.366;2024-01-11T10:56:58;99709.84;;;-6.20;73.93
14790;BME280;7486;51.010;10.366;2024-01-11T10:59:45;99714.16;;;-6.41;74.38
14790;BME280;7486;51.010;10.366;2024-01-11T11:02:34;99703.56;;;-6.55;74.84
14790;BME280;7486;51.010;10.366;2024-01-11T11:05:21;99694.09;;;-6.34;74.84
14790;BME280;7486;51.010;10.366;2024-01-11T11:08:08;99690.72;;;-6.16;75.11
14790;BME280;7486;51.010;10.366;2024-01-11T11:10:56;99694.69;;;-6.08;74.97
14790;BME280;7486;51.010;10.366;2024-01-11T11:13:42;99695.16;;;-5.79;74.86
14790;BME280;7486;51.010;10.366;2024-01-11T11:16:28;99682.16;;;-5.78;74.33
14790;BME280;7486;51.010;10.366;2024-01-11T11:19:14;99687.88;;;-5.90;74.49
14790;BME280;7486;51.010;10.366;2024-01-11T11:22:03;99651.03;;;-6.32;74.62
14790;BME280;7486;51.010;10.366;2024-01-11T11:25:03;99672.28;;;-5.87;74.55
14790;BME280;7486;51.010;10.366;2024-01-11T11:27:48;99663.63;;;-5.86;75.68
14790;BME280;7486;51.010;10.366;2024-01-11T11:30:37;99660.28;;;-5.51;74.81
14790;BME280;7486;51.010;10.366;2024-01-11T11:33:24;99658.31;;;-5.64;73.87
14790;BME280;7486;51.010;10.366;2024-01-11T11:36:12;99657.97;;;-5.19;74.31
14790;BME280;7486;51.010;10.366;2024-01-11T11:38:59;99655.44;;;-4.85;72.84
14790;BME280;7486;51.010;10.366;2024-01-11T11:41:45;99646.41;;;-4.76;72.10
14790;BME280;7486;51.010;10.366;2024-01-11T11:44:32;99651.66;;;-4.43;71.28
14790;BME280;7486;51.010;10.366;2024-01-11T11:47:24;99665.34;;;-4.41;70.96
14790;BME280;7486;51.010;10.366;2024-01-11T11:50:10;99664.63;;;-4.79;71.00
14790;BME280;7486;51.010;10.366;2024-01-11T11:52:57;99650.91;;;-4.63;71.36
14790;BME280;7486;51.010;10.366;2024-01-11T11:55:42;99658.13;;;-4.69;71.56
14790;BME280;7486;51.010;10.366;2024-01-11T11:58:29;99659.72;;;-4.32;71.65
14790;BME280;7486;51.010;10.366;2024-01-11T12:01:16;99656.38;;;-4.52;71.17
14790;BME280;7486;51.010;10.366;2024-01-11T12:04:01;99657.00;;;-4.46;71.71
14790;BME280;7486;51.010;10.366;2024-01-11T12:06:47;99647.25;;;-4.59;69.99
14790;BME280;7486;51.010;10.366;2024-01-11T12:09:33;99645.16;;;-4.18;71.20
14790;BME280;7486;51.010;10.366;2024-01-11T12:12:18;99648.78;;;-3.72;70.20
14790;BME280;7486;51.010;10.366;2024-01-11T12:15:05;99636.78;;;-3.41;69.86
14790;BME280;7486;51.010;10.366;2024-01-11T12:17:50;99631.50;;;-3.09;67.82
14790;BME280;7486;51.010;10.366;2024-01-11T12:20:44;99629.94;;;-3.27;67.58
14790;BME280;7486;51.010;10.366;2024-01-11T12:23:30;99624.34;;;-3.51;65.20
14790;BME280;7486;51.010;10.366;2024-01-11T12:26:16;99631.78;;;-3.29;65.97
14790;BME280;7486;51.010;10.366;2024-01-11T12:29:02;99617.34;;;-3.03;65.10
14790;BME280;7486;51.010;10.366;2024-01-11T12:31:47;99617.81;;;-2.81;65.07
14790;BME280;7486;51.010;10.366;2024-01-11T12:34:33;99617.19;;;-2.70;64.21
14790;BME280;7486;51.010;10.366;2024-01-11T12:37:20;99613.06;;;-2.88;63.37
14790;BME280;7486;51.010;10.366;2024-01-11T12:40:06;99607.91;;;-3.04;63.66
14790;BME280;7486;51.010;10.366;2024-01-11T12:42:51;99613.25;;;-3.07;64.07
14790;BME280;7486;51.010;10.366;2024-01-11T12:45:37;99609.53;;;-2.87;63.68
14790;BME280;7486;51.010;10.366;2024-01-11T12:48:23;99601.72;;;-3.02;63.40
14790;BME280;7486;51.010;10.366;2024-01-11T12:51:09;99600.72;;;-2.69;63.93
14790;BME280;7486;51.010;10.366;2024-01-11T12:54:11;99589.50;;;-2.70;63.99
14790;BME280;7486;51.010;10.366;2024-01-11T12:56:56;99518.13;;;-3.05;63.36
14790;BME280;7486;51.010;10.366;2024-01-11T12:59:42;99580.56;;;-2.50;63.46
14790;BME280;7486;51.010;10.366;2024-01-11T13:02:28;99572.50;;;-2.89;63.98
14790;BME280;7486;51.010;10.366;2024-01-11T13:05:15;99560.41;;;-3.05;64.22
14790;BME280;7486;51.010;10.366;2024-01-11T13:08:07;99550.75;;;-2.87;64.94
14790;BME280;7486;51.010;10.366;2024-01-11T13:10:53;99535.28;;;-2.88;63.45
14790;BME280;7486;51.010;10.366;2024-01-11T13:13:39;99534.31;;;-2.58;64.53
14790;BME280;7486;51.010;10.366;2024-01-11T13:16:24;99533.38;;;-2.57;62.55
14790;BME280;7486;51.010;10.366;2024-01-11T13:19:10;99536.34;;;-2.49;62.23
14790;BME280;7486;51.010;10.366;2024-01-11T13:22:11;99527.28;;;-2.13;61.17
14790;BME280;7486;51.010;10.366;2024-01-11T13:24:56;99530.84;;;-1.87;61.02
14790;BME280;7486;51.010;10.366;2024-01-11T13:27:42;99524.31;;;-1.66;60.09
14790;BME280;7486;51.010;10.366;2024-01-11T13:30:28;99525.75;;;-1.75;59.63
14790;BME280;7486;51.010;10.366;2024-01-11T13:33:13;99537.03;;;-1.62;59.16
14790;BME280;7486;51.010;10.366;2024-01-11T13:35:59;99536.06;;;-1.61;57.53
14790;BME280;7486;51.010;10.366;2024-01-11T13:38:44;99527.94;;;-1.69;57.69
14790;BME280;7486;51.010;10.366;2024-01-11T13:41:30;99531.31;;;-1.81;56.59
14790;BME280;7486;51.010;10.366;2024-01-11T13:44:19;99537.47;;;-2.10;57.22
14790;BME280;7486;51.010;10.366;2024-01-11T13:47:09;99530.97;;;-2.03;57.72
14790;BME280;7486;51.010;10.366;2024-01-11T13:49:54;99538.19;;;-1.94;57.44
14790;BME280;7486;51.010;10.366;2024-01-11T13:52:40;99552.97;;;-2.37;57.83
14790;BME280;7486;51.010;10.366;2024-01-11T13:55:26;99557.63;;;-2.72;59.93
14790;BME280;7486;51.010;10.366;2024-01-11T13:58:12;99570.16;;;-2.64;60.56
14790;BME280;7486;51.010;10.366;2024-01-11T14:00:57;99537.28;;;-2.21;59.42
14790;BME280;7486;51.010;10.366;2024-01-11T14:03:43;99552.47;;;-2.15;60.16
14790;BME280;7486;51.010;10.366;2024-01-11T14:06:28;99558.78;;;-1.91;60.43
14790;BME280;7486;51.010;10.366;2024-01-11T14:09:14;99564.53;;;-2.28;60.53
14790;BME280;7486;51.010;10.366;2024-01-11T14:11:59;99558.22;;;-2.38;61.97
14790;BME280;7486;51.010;10.366;2024-01-11T14:14:45;99526.53;;;-2.15;62.21
14790;BME280;7486;51.010;10.366;2024-01-11T14:17:32;99550.75;;;-1.60;60.86
14790;BME280;7486;51.010;10.366;2024-01-11T14:20:18;99562.75;;;-1.71;57.40
14790;BME280;7486;51.010;10.366;2024-01-11T14:23:04;99559.28;;;-1.58;56.09
14790;BME280;7486;51.010;10.366;2024-01-11T14:25:49;99534.97;;;-2.26;55.21
14790;BME280;7486;51.010;10.366;2024-01-11T14:28:35;99554.69;;;-1.95;54.59
14790;BME280;7486;51.010;10.366;2024-01-11T14:31:20;99560.56;;;-2.20;52.53